Thomson Dream — 9HA2381 — position and weather

sailwx.info

Track history (hours):
 
Tides and Currents Weather Stations Pressure Air Temp Water Temp Dewpoint Dewpoint Depression Visibility Wind Speed Wind Dir Waves Ship Positions

Thomson Dream

Last reported at 2017-May-24 18:38 UTC. Time now 2017-May-25 02:59 UTC.
Position N 37°10' E 023°39'.

Length 243 m; draft 7.6 m.

Type: Ship. MMSI: 248480975.

Date/timePositionNaut miles runAvg speedWind from/ knotsBaromVisibWave heightAir tempDewpointWater temp
2017-May-24 18:38N 37°10' E 023°39'718.1
2017-May-24 18:16N 37°16' E 023°41'518.2
2017-May-24 18:00N 37°21' E 023°41'917.9
2017-May-24 17:30N 37°30' E 023°42'917.8
2017-May-24 17:00N 37°39' E 023°42'917.7
2017-May-24 16:30N 37°47' E 023°38'816.0
2017-May-24 16:00N 37°55' E 023°37'2 3.5
2017-May-24 15:29N 37°56' E 023°38'0 0.0
2017-May-24 14:59N 37°56' E 023°38'0 0.0
2017-May-24 14:29N 37°56' E 023°38'0 0.0
2017-May-24 13:29N 37°56' E 023°38'0 0.0
2017-May-24 12:59N 37°56' E 023°38'0 0.0
2017-May-24 12:29N 37°56' E 023°38'0 0.0
2017-May-24 11:59N 37°56' E 023°38'0 0.0
2017-May-24 11:29N 37°56' E 023°38'0 0.0
2017-May-24 10:59N 37°56' E 023°38'0 0.0
2017-May-24 10:29N 37°56' E 023°38'0 0.0
2017-May-24 09:59N 37°56' E 023°38'0 0.0
2017-May-24 09:29N 37°56' E 023°38'0 0.0
2017-May-24 08:59N 37°56' E 023°38'0 0.0
2017-May-24 08:29N 37°56' E 023°38'0 0.0
2017-May-24 07:59N 37°56' E 023°38'0 0.0
2017-May-24 07:26N 37°56' E 023°38'0 0.0
2017-May-24 06:56N 37°56' E 023°38'0 0.0
2017-May-24 06:29N 37°56' E 023°38'0 0.0
2017-May-24 05:59N 37°56' E 023°38'0 0.0
2017-May-24 05:29N 37°56' E 023°38'0 0.0
2017-May-24 04:59N 37°56' E 023°38'0 0.0
2017-May-24 04:29N 37°56' E 023°38'1 1.7
2017-May-24 04:00N 37°56' E 023°37'1 2.6
2017-May-24 03:31N 37°55' E 023°36'2 3.0
2017-May-24 03:01N 37°54' E 023°37'510.2
2017-May-24 02:30N 37°49' E 023°40'917.3
2017-May-24 02:00N 37°41' E 023°45'1019.2
2017-May-24 01:30N 37°32' E 023°47'917.6
2017-May-24 01:00N 37°23' E 023°50'  
2017-May-15 23:29N 44°04' E 014°05'916.5
2017-May-15 22:55N 44°11' E 013°57'1218.1
2017-May-15 22:14N 44°21' E 013°47'516.7
2017-May-15 21:56N 44°25' E 013°43'716.8
2017-May-15 21:30N 44°31' E 013°37'918.0
2017-May-15 21:00N 44°39' E 013°32'918.2
2017-May-15 20:30N 44°47' E 013°25'918.4
2017-May-15 20:00N 44°54' E 013°17'918.6
2017-May-15 19:30N 45°02' E 013°10'918.5
2017-May-15 19:01N 45°10' E 013°03'918.0
2017-May-15 18:30N 45°19' E 012°60'917.3
2017-May-15 18:00N 45°26' E 013°05'918.2
2017-May-15 17:30N 45°32' E 013°15'917.9
2017-May-15 17:00N 45°36' E 013°27'816.4
2017-May-15 16:30N 45°36' E 013°38'5 9.3
2017-May-15 15:59N 45°33' E 013°44'0 0.1
2017-May-15 15:30N 45°33' E 013°44'0 0.0
2017-May-15 15:00N 45°33' E 013°44'0 0.0
2017-May-15 14:27N 45°33' E 013°44'0 0.0
2017-May-15 13:30N 45°33' E 013°44'0 0.0
2017-May-15 12:57N 45°33' E 013°44'0 0.0
2017-May-15 12:15N 45°33' E 013°44'0 0.0
2017-May-15 12:00N 45°33' E 013°44'0 0.0
2017-May-15 11:30N 45°33' E 013°44'0 0.0
2017-May-15 10:57N 45°33' E 013°44'0 0.0
2017-May-15 10:30N 45°33' E 013°44'0 0.0
2017-May-15 10:00N 45°33' E 013°44'0 0.0
2017-May-15 09:01N 45°33' E 013°44'0 0.0
2017-May-15 08:55N 45°33' E 013°44'0 0.0
2017-May-15 08:25N 45°33' E 013°44'0 0.0
2017-May-15 07:58N 45°33' E 013°44'0 0.0
2017-May-15 07:30N 45°33' E 013°44'0 0.0
2017-May-15 07:00N 45°33' E 013°44'0 0.0
2017-May-15 06:27N 45°33' E 013°44'0 0.0
2017-May-15 05:57N 45°33' E 013°44'0 0.5
2017-May-15 05:30N 45°33' E 013°43'1 1.2
2017-May-15 05:00N 45°33' E 013°43'3 6.8
2017-May-15 04:30N 45°35' E 013°38'0 0.5
2017-May-15 04:00N 45°35' E 013°38'0 0.2
2017-May-15 03:30N 45°35' E 013°38'0 0.1
2017-May-15 03:00N 45°35' E 013°38'0 0.2
2017-May-15 02:30N 45°35' E 013°38'0 0.3
2017-May-15 02:00N 45°35' E 013°38'1 2.7
2017-May-15 01:30N 45°37' E 013°37'0 0.2
2017-May-15 01:00N 45°36' E 013°37'0 0.3
2017-May-15 00:30N 45°36' E 013°37'0 0.2
2017-May-15 00:00N 45°36' E 013°37'0 0.2
2017-May-14 23:30N 45°36' E 013°37'0 0.3
2017-May-14 23:00N 45°36' E 013°37'1 1.4
2017-May-14 22:30N 45°36' E 013°36'5 9.8
2017-May-14 22:00N 45°34' E 013°30'510.6
2017-May-14 21:30N 45°32' E 013°23'510.5
2017-May-14 21:00N 45°30' E 013°16'510.5
2017-May-14 20:30N 45°28' E 013°09'510.6
2017-May-14 20:00N 45°26' E 013°02'510.5
2017-May-14 19:30N 45°24' E 012°55'510.3
2017-May-14 19:00N 45°21' E 012°49'  
Track history (hours):
 
Tides and Currents Weather Stations Pressure Air Temp Water Temp Dewpoint Dewpoint Depression Visibility Wind Speed Wind Dir Waves Ship Positions

Thomson Dream

Last reported at 2017-May-24 18:38 UTC. Time now 2017-May-25 02:59 UTC.
Position N 37°10' E 023°39'.

Length 243 m; draft 7.6 m.

Type: Ship. MMSI: 248480975.

Date/timePositionNaut miles runAvg speedWind from/ knotsBaromVisibWave heightAir tempDewpointWater temp
2017-May-24 18:38N 37°10' E 023°39'718.1
2017-May-24 18:16N 37°16' E 023°41'518.2
2017-May-24 18:00N 37°21' E 023°41'917.9
2017-May-24 17:30N 37°30' E 023°42'917.8
2017-May-24 17:00N 37°39' E 023°42'917.7
2017-May-24 16:30N 37°47' E 023°38'816.0
2017-May-24 16:00N 37°55' E 023°37'2 3.5
2017-May-24 15:29N 37°56' E 023°38'0 0.0
2017-May-24 14:59N 37°56' E 023°38'0 0.0
2017-May-24 14:29N 37°56' E 023°38'0 0.0
2017-May-24 13:29N 37°56' E 023°38'0 0.0
2017-May-24 12:59N 37°56' E 023°38'0 0.0
2017-May-24 12:29N 37°56' E 023°38'0 0.0
2017-May-24 11:59N 37°56' E 023°38'0 0.0
2017-May-24 11:29N 37°56' E 023°38'0 0.0
2017-May-24 10:59N 37°56' E 023°38'0 0.0
2017-May-24 10:29N 37°56' E 023°38'0 0.0
2017-May-24 09:59N 37°56' E 023°38'0 0.0
2017-May-24 09:29N 37°56' E 023°38'0 0.0
2017-May-24 08:59N 37°56' E 023°38'0 0.0
2017-May-24 08:29N 37°56' E 023°38'0 0.0
2017-May-24 07:59N 37°56' E 023°38'0 0.0
2017-May-24 07:26N 37°56' E 023°38'0 0.0
2017-May-24 06:56N 37°56' E 023°38'0 0.0
2017-May-24 06:29N 37°56' E 023°38'0 0.0
2017-May-24 05:59N 37°56' E 023°38'0 0.0
2017-May-24 05:29N 37°56' E 023°38'0 0.0
2017-May-24 04:59N 37°56' E 023°38'0 0.0
2017-May-24 04:29N 37°56' E 023°38'1 1.7
2017-May-24 04:00N 37°56' E 023°37'1 2.6
2017-May-24 03:31N 37°55' E 023°36'2 3.0
2017-May-24 03:01N 37°54' E 023°37'510.2
2017-May-24 02:30N 37°49' E 023°40'917.3
2017-May-24 02:00N 37°41' E 023°45'1019.2
2017-May-24 01:30N 37°32' E 023°47'917.6
2017-May-24 01:00N 37°23' E 023°50'  
2017-May-15 23:29N 44°04' E 014°05'916.5
2017-May-15 22:55N 44°11' E 013°57'1218.1
2017-May-15 22:14N 44°21' E 013°47'516.7
2017-May-15 21:56N 44°25' E 013°43'716.8
2017-May-15 21:30N 44°31' E 013°37'918.0
2017-May-15 21:00N 44°39' E 013°32'918.2
2017-May-15 20:30N 44°47' E 013°25'918.4
2017-May-15 20:00N 44°54' E 013°17'918.6
2017-May-15 19:30N 45°02' E 013°10'918.5
2017-May-15 19:01N 45°10' E 013°03'918.0
2017-May-15 18:30N 45°19' E 012°60'917.3
2017-May-15 18:00N 45°26' E 013°05'918.2
2017-May-15 17:30N 45°32' E 013°15'917.9
2017-May-15 17:00N 45°36' E 013°27'816.4
2017-May-15 16:30N 45°36' E 013°38'5 9.3
2017-May-15 15:59N 45°33' E 013°44'0 0.1
2017-May-15 15:30N 45°33' E 013°44'0 0.0
2017-May-15 15:00N 45°33' E 013°44'0 0.0
2017-May-15 14:27N 45°33' E 013°44'0 0.0
2017-May-15 13:30N 45°33' E 013°44'0 0.0
2017-May-15 12:57N 45°33' E 013°44'0 0.0
2017-May-15 12:15N 45°33' E 013°44'0 0.0
2017-May-15 12:00N 45°33' E 013°44'0 0.0
2017-May-15 11:30N 45°33' E 013°44'0 0.0
2017-May-15 10:57N 45°33' E 013°44'0 0.0
2017-May-15 10:30N 45°33' E 013°44'0 0.0
2017-May-15 10:00N 45°33' E 013°44'0 0.0
2017-May-15 09:01N 45°33' E 013°44'0 0.0
2017-May-15 08:55N 45°33' E 013°44'0 0.0
2017-May-15 08:25N 45°33' E 013°44'0 0.0
2017-May-15 07:58N 45°33' E 013°44'0 0.0
2017-May-15 07:30N 45°33' E 013°44'0 0.0
2017-May-15 07:00N 45°33' E 013°44'0 0.0
2017-May-15 06:27N 45°33' E 013°44'0 0.0
2017-May-15 05:57N 45°33' E 013°44'0 0.5
2017-May-15 05:30N 45°33' E 013°43'1 1.2
2017-May-15 05:00N 45°33' E 013°43'3 6.8
2017-May-15 04:30N 45°35' E 013°38'0 0.5
2017-May-15 04:00N 45°35' E 013°38'0 0.2
2017-May-15 03:30N 45°35' E 013°38'0 0.1
2017-May-15 03:00N 45°35' E 013°38'0 0.2
2017-May-15 02:30N 45°35' E 013°38'0 0.3
2017-May-15 02:00N 45°35' E 013°38'1 2.7
2017-May-15 01:30N 45°37' E 013°37'0 0.2
2017-May-15 01:00N 45°36' E 013°37'0 0.3
2017-May-15 00:30N 45°36' E 013°37'0 0.2
2017-May-15 00:00N 45°36' E 013°37'0 0.2
2017-May-14 23:30N 45°36' E 013°37'0 0.3
2017-May-14 23:00N 45°36' E 013°37'1 1.4
2017-May-14 22:30N 45°36' E 013°36'5 9.8
2017-May-14 22:00N 45°34' E 013°30'510.6
2017-May-14 21:30N 45°32' E 013°23'510.5
2017-May-14 21:00N 45°30' E 013°16'510.5
2017-May-14 20:30N 45°28' E 013°09'510.6
2017-May-14 20:00N 45°26' E 013°02'510.5
2017-May-14 19:30N 45°24' E 012°55'510.3
2017-May-14 19:00N 45°21' E 012°49'  

Dump ship's entire track history